<?xml version="1.0" encoding="UTF-8" standalone="no" ?>
<gpx xmlns="http://www.topografix.com/GPX/1/1" xmlns:xsi="http://www.w3.org/2001/XMLSchema-instance" xsi:schemaLocation="http://www.topografix.com/GPX/1/1 http://www.topografix.com/GPX/1/1/gpx.xsd" version="1.1" creator="VisuGPX - https://www.visugpx.com">
  <metadata>
    <name>St Saturnin lès Apt - Forêt de Javon</name>
    <desc><![CDATA[Boucle de 10 km, dénivelé cumulé 495 m]]></desc>
  </metadata>
  <trk>
    <name><![CDATA[Saint-Saturnin-lès-Apt Randonnée 9 avr. 2019 à 09:29]]></name>
    <trkseg>
      <trkpt lat="43.96271" lon="5.33688">
        <ele>448</ele>
        <time>2019-04-09T07:29:43Z</time>
      </trkpt>
      <trkpt lat="43.96271" lon="5.33688">
        <ele>448</ele>
        <time>2019-04-09T07:29:58Z</time>
      </trkpt>
      <trkpt lat="43.96257" lon="5.33671">
        <ele>437</ele>
        <time>2019-04-09T07:34:07Z</time>
      </trkpt>
      <trkpt lat="43.96262" lon="5.33651">
        <ele>428</ele>
        <time>2019-04-09T07:35:17Z</time>
      </trkpt>
      <trkpt lat="43.9628" lon="5.33651">
        <ele>428</ele>
        <time>2019-04-09T07:35:39Z</time>
      </trkpt>
      <trkpt lat="43.96301" lon="5.33648">
        <ele>429</ele>
        <time>2019-04-09T07:35:55Z</time>
      </trkpt>
      <trkpt lat="43.96324" lon="5.33628">
        <ele>428</ele>
        <time>2019-04-09T07:36:16Z</time>
      </trkpt>
      <trkpt lat="43.96336" lon="5.33607">
        <ele>429</ele>
        <time>2019-04-09T07:36:33Z</time>
      </trkpt>
      <trkpt lat="43.96352" lon="5.33593">
        <ele>428</ele>
        <time>2019-04-09T07:36:52Z</time>
      </trkpt>
      <trkpt lat="43.9637" lon="5.33588">
        <ele>431</ele>
        <time>2019-04-09T07:37:10Z</time>
      </trkpt>
      <trkpt lat="43.96388" lon="5.33577">
        <ele>422</ele>
        <time>2019-04-09T07:37:27Z</time>
      </trkpt>
      <trkpt lat="43.964" lon="5.3356">
        <ele>422</ele>
        <time>2019-04-09T07:37:59Z</time>
      </trkpt>
      <trkpt lat="43.96398" lon="5.33536">
        <ele>419</ele>
        <time>2019-04-09T07:38:21Z</time>
      </trkpt>
      <trkpt lat="43.96399" lon="5.33509">
        <ele>418</ele>
        <time>2019-04-09T07:38:52Z</time>
      </trkpt>
      <trkpt lat="43.964" lon="5.33482">
        <ele>417</ele>
        <time>2019-04-09T07:39:09Z</time>
      </trkpt>
      <trkpt lat="43.96403" lon="5.33457">
        <ele>417</ele>
        <time>2019-04-09T07:39:23Z</time>
      </trkpt>
      <trkpt lat="43.96409" lon="5.33432">
        <ele>418</ele>
        <time>2019-04-09T07:40:11Z</time>
      </trkpt>
      <trkpt lat="43.96436" lon="5.3343">
        <ele>424</ele>
        <time>2019-04-09T07:40:38Z</time>
      </trkpt>
      <trkpt lat="43.96454" lon="5.33425">
        <ele>426</ele>
        <time>2019-04-09T07:41:06Z</time>
      </trkpt>
      <trkpt lat="43.96471" lon="5.3344">
        <ele>427</ele>
        <time>2019-04-09T07:41:31Z</time>
      </trkpt>
      <trkpt lat="43.96487" lon="5.33456">
        <ele>427</ele>
        <time>2019-04-09T07:41:55Z</time>
      </trkpt>
      <trkpt lat="43.96505" lon="5.33465">
        <ele>435</ele>
        <time>2019-04-09T07:42:21Z</time>
      </trkpt>
      <trkpt lat="43.96523" lon="5.33472">
        <ele>435</ele>
        <time>2019-04-09T07:42:45Z</time>
      </trkpt>
      <trkpt lat="43.96542" lon="5.33476">
        <ele>437</ele>
        <time>2019-04-09T07:43:07Z</time>
      </trkpt>
      <trkpt lat="43.9656" lon="5.33483">
        <ele>440</ele>
        <time>2019-04-09T07:43:28Z</time>
      </trkpt>
      <trkpt lat="43.96578" lon="5.33486">
        <ele>443</ele>
        <time>2019-04-09T07:43:54Z</time>
      </trkpt>
      <trkpt lat="43.96594" lon="5.33497">
        <ele>449</ele>
        <time>2019-04-09T07:46:05Z</time>
      </trkpt>
      <trkpt lat="43.96613" lon="5.33508">
        <ele>452</ele>
        <time>2019-04-09T07:46:34Z</time>
      </trkpt>
      <trkpt lat="43.96625" lon="5.33526">
        <ele>454</ele>
        <time>2019-04-09T07:47:00Z</time>
      </trkpt>
      <trkpt lat="43.96643" lon="5.33537">
        <ele>456</ele>
        <time>2019-04-09T07:47:23Z</time>
      </trkpt>
      <trkpt lat="43.9666" lon="5.33549">
        <ele>458</ele>
        <time>2019-04-09T07:47:45Z</time>
      </trkpt>
      <trkpt lat="43.9667" lon="5.33565">
        <ele>471</ele>
        <time>2019-04-09T07:48:07Z</time>
      </trkpt>
      <trkpt lat="43.96683" lon="5.33582">
        <ele>470</ele>
        <time>2019-04-09T07:48:36Z</time>
      </trkpt>
      <trkpt lat="43.96699" lon="5.33597">
        <ele>469</ele>
        <time>2019-04-09T07:49:01Z</time>
      </trkpt>
      <trkpt lat="43.96716" lon="5.33609">
        <ele>471</ele>
        <time>2019-04-09T07:49:29Z</time>
      </trkpt>
      <trkpt lat="43.96734" lon="5.33602">
        <ele>475</ele>
        <time>2019-04-09T07:49:49Z</time>
      </trkpt>
      <trkpt lat="43.96747" lon="5.33588">
        <ele>481</ele>
        <time>2019-04-09T07:50:26Z</time>
      </trkpt>
      <trkpt lat="43.96766" lon="5.33584">
        <ele>485</ele>
        <time>2019-04-09T07:50:47Z</time>
      </trkpt>
      <trkpt lat="43.96783" lon="5.33573">
        <ele>492</ele>
        <time>2019-04-09T07:51:10Z</time>
      </trkpt>
      <trkpt lat="43.96801" lon="5.33568">
        <ele>494</ele>
        <time>2019-04-09T07:51:39Z</time>
      </trkpt>
      <trkpt lat="43.96819" lon="5.33572">
        <ele>495</ele>
        <time>2019-04-09T07:51:59Z</time>
      </trkpt>
      <trkpt lat="43.96834" lon="5.33558">
        <ele>503</ele>
        <time>2019-04-09T07:52:22Z</time>
      </trkpt>
      <trkpt lat="43.96851" lon="5.33543">
        <ele>506</ele>
        <time>2019-04-09T07:52:48Z</time>
      </trkpt>
      <trkpt lat="43.96862" lon="5.33523">
        <ele>507</ele>
        <time>2019-04-09T07:53:09Z</time>
      </trkpt>
      <trkpt lat="43.96863" lon="5.335">
        <ele>515</ele>
        <time>2019-04-09T07:53:36Z</time>
      </trkpt>
      <trkpt lat="43.96849" lon="5.33482">
        <ele>514</ele>
        <time>2019-04-09T07:54:10Z</time>
      </trkpt>
      <trkpt lat="43.9685" lon="5.33457">
        <ele>516</ele>
        <time>2019-04-09T07:58:43Z</time>
      </trkpt>
      <trkpt lat="43.96865" lon="5.33447">
        <ele>517</ele>
        <time>2019-04-09T07:59:13Z</time>
      </trkpt>
      <trkpt lat="43.96877" lon="5.33428">
        <ele>520</ele>
        <time>2019-04-09T07:59:43Z</time>
      </trkpt>
      <trkpt lat="43.96888" lon="5.33408">
        <ele>524</ele>
        <time>2019-04-09T08:00:10Z</time>
      </trkpt>
      <trkpt lat="43.96905" lon="5.33403">
        <ele>527</ele>
        <time>2019-04-09T08:00:43Z</time>
      </trkpt>
      <trkpt lat="43.96923" lon="5.334">
        <ele>538</ele>
        <time>2019-04-09T08:01:13Z</time>
      </trkpt>
      <trkpt lat="43.96931" lon="5.33378">
        <ele>541</ele>
        <time>2019-04-09T08:01:45Z</time>
      </trkpt>
      <trkpt lat="43.96935" lon="5.33353">
        <ele>541</ele>
        <time>2019-04-09T08:02:15Z</time>
      </trkpt>
      <trkpt lat="43.96954" lon="5.33355">
        <ele>544</ele>
        <time>2019-04-09T08:03:50Z</time>
      </trkpt>
      <trkpt lat="43.96973" lon="5.33354">
        <ele>547</ele>
        <time>2019-04-09T08:04:18Z</time>
      </trkpt>
      <trkpt lat="43.96988" lon="5.33339">
        <ele>551</ele>
        <time>2019-04-09T08:04:45Z</time>
      </trkpt>
      <trkpt lat="43.97005" lon="5.33343">
        <ele>558</ele>
        <time>2019-04-09T08:05:15Z</time>
      </trkpt>
      <trkpt lat="43.97021" lon="5.33357">
        <ele>560</ele>
        <time>2019-04-09T08:05:36Z</time>
      </trkpt>
      <trkpt lat="43.97037" lon="5.33371">
        <ele>561</ele>
        <time>2019-04-09T08:06:01Z</time>
      </trkpt>
      <trkpt lat="43.97053" lon="5.33383">
        <ele>562</ele>
        <time>2019-04-09T08:06:19Z</time>
      </trkpt>
      <trkpt lat="43.97069" lon="5.33398">
        <ele>564</ele>
        <time>2019-04-09T08:06:42Z</time>
      </trkpt>
      <trkpt lat="43.97077" lon="5.33423">
        <ele>562</ele>
        <time>2019-04-09T08:07:03Z</time>
      </trkpt>
      <trkpt lat="43.97092" lon="5.33438">
        <ele>568</ele>
        <time>2019-04-09T08:07:26Z</time>
      </trkpt>
      <trkpt lat="43.97108" lon="5.33452">
        <ele>568</ele>
        <time>2019-04-09T08:07:45Z</time>
      </trkpt>
      <trkpt lat="43.97124" lon="5.33467">
        <ele>568</ele>
        <time>2019-04-09T08:08:08Z</time>
      </trkpt>
      <trkpt lat="43.97142" lon="5.33473">
        <ele>570</ele>
        <time>2019-04-09T08:08:29Z</time>
      </trkpt>
      <trkpt lat="43.9716" lon="5.33486">
        <ele>572</ele>
        <time>2019-04-09T08:08:49Z</time>
      </trkpt>
      <trkpt lat="43.97175" lon="5.335">
        <ele>577</ele>
        <time>2019-04-09T08:09:12Z</time>
      </trkpt>
      <trkpt lat="43.97177" lon="5.33525">
        <ele>579</ele>
        <time>2019-04-09T08:09:31Z</time>
      </trkpt>
      <trkpt lat="43.97168" lon="5.33549">
        <ele>579</ele>
        <time>2019-04-09T08:09:53Z</time>
      </trkpt>
      <trkpt lat="43.97158" lon="5.33572">
        <ele>570</ele>
        <time>2019-04-09T08:10:16Z</time>
      </trkpt>
      <trkpt lat="43.97152" lon="5.33596">
        <ele>569</ele>
        <time>2019-04-09T08:10:36Z</time>
      </trkpt>
      <trkpt lat="43.97149" lon="5.33622">
        <ele>566</ele>
        <time>2019-04-09T08:10:56Z</time>
      </trkpt>
      <trkpt lat="43.97153" lon="5.33647">
        <ele>567</ele>
        <time>2019-04-09T08:11:15Z</time>
      </trkpt>
      <trkpt lat="43.97157" lon="5.33673">
        <ele>565</ele>
        <time>2019-04-09T08:11:37Z</time>
      </trkpt>
      <trkpt lat="43.9717" lon="5.33694">
        <ele>571</ele>
        <time>2019-04-09T08:12:16Z</time>
      </trkpt>
      <trkpt lat="43.97185" lon="5.33707">
        <ele>570</ele>
        <time>2019-04-09T08:12:44Z</time>
      </trkpt>
      <trkpt lat="43.97201" lon="5.33718">
        <ele>571</ele>
        <time>2019-04-09T08:13:16Z</time>
      </trkpt>
      <trkpt lat="43.97212" lon="5.3374">
        <ele>571</ele>
        <time>2019-04-09T08:13:44Z</time>
      </trkpt>
      <trkpt lat="43.97213" lon="5.33766">
        <ele>565</ele>
        <time>2019-04-09T08:14:13Z</time>
      </trkpt>
      <trkpt lat="43.97208" lon="5.3379">
        <ele>564</ele>
        <time>2019-04-09T08:14:41Z</time>
      </trkpt>
      <trkpt lat="43.97215" lon="5.33813">
        <ele>564</ele>
        <time>2019-04-09T08:17:04Z</time>
      </trkpt>
      <trkpt lat="43.97232" lon="5.33824">
        <ele>569</ele>
        <time>2019-04-09T08:17:25Z</time>
      </trkpt>
      <trkpt lat="43.97248" lon="5.33838">
        <ele>573</ele>
        <time>2019-04-09T08:17:43Z</time>
      </trkpt>
      <trkpt lat="43.97258" lon="5.33856">
        <ele>580</ele>
        <time>2019-04-09T08:18:05Z</time>
      </trkpt>
      <trkpt lat="43.97261" lon="5.33882">
        <ele>580</ele>
        <time>2019-04-09T08:18:29Z</time>
      </trkpt>
      <trkpt lat="43.97263" lon="5.33908">
        <ele>577</ele>
        <time>2019-04-09T08:18:53Z</time>
      </trkpt>
      <trkpt lat="43.9727" lon="5.33933">
        <ele>576</ele>
        <time>2019-04-09T08:19:15Z</time>
      </trkpt>
      <trkpt lat="43.97278" lon="5.33957">
        <ele>577</ele>
        <time>2019-04-09T08:19:39Z</time>
      </trkpt>
      <trkpt lat="43.97295" lon="5.33968">
        <ele>579</ele>
        <time>2019-04-09T08:20:02Z</time>
      </trkpt>
      <trkpt lat="43.97307" lon="5.33988">
        <ele>581</ele>
        <time>2019-04-09T08:20:30Z</time>
      </trkpt>
      <trkpt lat="43.97306" lon="5.34014">
        <ele>578</ele>
        <time>2019-04-09T08:20:55Z</time>
      </trkpt>
      <trkpt lat="43.9731" lon="5.34039">
        <ele>577</ele>
        <time>2019-04-09T08:21:20Z</time>
      </trkpt>
      <trkpt lat="43.97317" lon="5.34061">
        <ele>578</ele>
        <time>2019-04-09T08:21:43Z</time>
      </trkpt>
      <trkpt lat="43.97325" lon="5.34085">
        <ele>579</ele>
        <time>2019-04-09T08:22:08Z</time>
      </trkpt>
      <trkpt lat="43.97332" lon="5.34109">
        <ele>571</ele>
        <time>2019-04-09T08:23:46Z</time>
      </trkpt>
      <trkpt lat="43.97346" lon="5.34127">
        <ele>582</ele>
        <time>2019-04-09T08:26:35Z</time>
      </trkpt>
      <trkpt lat="43.97362" lon="5.34135">
        <ele>582</ele>
        <time>2019-04-09T08:27:37Z</time>
      </trkpt>
      <trkpt lat="43.97373" lon="5.34156">
        <ele>581</ele>
        <time>2019-04-09T08:28:18Z</time>
      </trkpt>
      <trkpt lat="43.9738" lon="5.3418">
        <ele>570</ele>
        <time>2019-04-09T08:28:48Z</time>
      </trkpt>
      <trkpt lat="43.9739" lon="5.34201">
        <ele>569</ele>
        <time>2019-04-09T08:29:28Z</time>
      </trkpt>
      <trkpt lat="43.97407" lon="5.34213">
        <ele>570</ele>
        <time>2019-04-09T08:30:07Z</time>
      </trkpt>
      <trkpt lat="43.97424" lon="5.34219">
        <ele>583</ele>
        <time>2019-04-09T08:31:05Z</time>
      </trkpt>
      <trkpt lat="43.97441" lon="5.3423">
        <ele>584</ele>
        <time>2019-04-09T08:31:30Z</time>
      </trkpt>
      <trkpt lat="43.97459" lon="5.34239">
        <ele>586</ele>
        <time>2019-04-09T08:31:53Z</time>
      </trkpt>
      <trkpt lat="43.97473" lon="5.34253">
        <ele>578</ele>
        <time>2019-04-09T08:32:30Z</time>
      </trkpt>
      <trkpt lat="43.97491" lon="5.34249">
        <ele>591</ele>
        <time>2019-04-09T08:34:25Z</time>
      </trkpt>
      <trkpt lat="43.97509" lon="5.34249">
        <ele>596</ele>
        <time>2019-04-09T08:34:53Z</time>
      </trkpt>
      <trkpt lat="43.97526" lon="5.34237">
        <ele>600</ele>
        <time>2019-04-09T08:35:23Z</time>
      </trkpt>
      <trkpt lat="43.97544" lon="5.34245">
        <ele>603</ele>
        <time>2019-04-09T08:35:52Z</time>
      </trkpt>
      <trkpt lat="43.97561" lon="5.34232">
        <ele>605</ele>
        <time>2019-04-09T08:36:28Z</time>
      </trkpt>
      <trkpt lat="43.97576" lon="5.34221">
        <ele>606</ele>
        <time>2019-04-09T08:36:58Z</time>
      </trkpt>
      <trkpt lat="43.97592" lon="5.34207">
        <ele>616</ele>
        <time>2019-04-09T08:37:29Z</time>
      </trkpt>
      <trkpt lat="43.97611" lon="5.34201">
        <ele>618</ele>
        <time>2019-04-09T08:38:01Z</time>
      </trkpt>
      <trkpt lat="43.97626" lon="5.34185">
        <ele>620</ele>
        <time>2019-04-09T08:38:26Z</time>
      </trkpt>
      <trkpt lat="43.97643" lon="5.34177">
        <ele>622</ele>
        <time>2019-04-09T08:38:53Z</time>
      </trkpt>
      <trkpt lat="43.97659" lon="5.34166">
        <ele>628</ele>
        <time>2019-04-09T08:39:16Z</time>
      </trkpt>
      <trkpt lat="43.97674" lon="5.34166">
        <ele>632</ele>
        <time>2019-04-09T08:40:07Z</time>
      </trkpt>
      <trkpt lat="43.97692" lon="5.34168">
        <ele>634</ele>
        <time>2019-04-09T08:40:34Z</time>
      </trkpt>
      <trkpt lat="43.97701" lon="5.34188">
        <ele>635</ele>
        <time>2019-04-09T08:41:18Z</time>
      </trkpt>
      <trkpt lat="43.97712" lon="5.34208">
        <ele>636</ele>
        <time>2019-04-09T08:42:23Z</time>
      </trkpt>
      <trkpt lat="43.9773" lon="5.34207">
        <ele>638</ele>
        <time>2019-04-09T08:43:11Z</time>
      </trkpt>
      <trkpt lat="43.97746" lon="5.34193">
        <ele>640</ele>
        <time>2019-04-09T08:43:49Z</time>
      </trkpt>
      <trkpt lat="43.97756" lon="5.3417">
        <ele>650</ele>
        <time>2019-04-09T08:44:21Z</time>
      </trkpt>
      <trkpt lat="43.97774" lon="5.34159">
        <ele>655</ele>
        <time>2019-04-09T08:44:48Z</time>
      </trkpt>
      <trkpt lat="43.97788" lon="5.34141">
        <ele>657</ele>
        <time>2019-04-09T08:45:24Z</time>
      </trkpt>
      <trkpt lat="43.97804" lon="5.34135">
        <ele>659</ele>
        <time>2019-04-09T08:45:50Z</time>
      </trkpt>
      <trkpt lat="43.9782" lon="5.34144">
        <ele>661</ele>
        <time>2019-04-09T08:47:33Z</time>
      </trkpt>
      <trkpt lat="43.97834" lon="5.34159">
        <ele>669</ele>
        <time>2019-04-09T08:48:07Z</time>
      </trkpt>
      <trkpt lat="43.97852" lon="5.34163">
        <ele>672</ele>
        <time>2019-04-09T08:48:30Z</time>
      </trkpt>
      <trkpt lat="43.97866" lon="5.34145">
        <ele>674</ele>
        <time>2019-04-09T08:49:04Z</time>
      </trkpt>
      <trkpt lat="43.97884" lon="5.34138">
        <ele>676</ele>
        <time>2019-04-09T08:49:39Z</time>
      </trkpt>
      <trkpt lat="43.979" lon="5.34154">
        <ele>679</ele>
        <time>2019-04-09T08:50:06Z</time>
      </trkpt>
      <trkpt lat="43.97912" lon="5.34174">
        <ele>680</ele>
        <time>2019-04-09T08:50:32Z</time>
      </trkpt>
      <trkpt lat="43.97927" lon="5.34187">
        <ele>685</ele>
        <time>2019-04-09T08:50:55Z</time>
      </trkpt>
      <trkpt lat="43.97942" lon="5.34201">
        <ele>686</ele>
        <time>2019-04-09T08:51:18Z</time>
      </trkpt>
      <trkpt lat="43.97961" lon="5.34205">
        <ele>687</ele>
        <time>2019-04-09T08:51:43Z</time>
      </trkpt>
      <trkpt lat="43.97979" lon="5.3421">
        <ele>688</ele>
        <time>2019-04-09T08:52:08Z</time>
      </trkpt>
      <trkpt lat="43.97997" lon="5.3421">
        <ele>689</ele>
        <time>2019-04-09T08:52:31Z</time>
      </trkpt>
      <trkpt lat="43.98015" lon="5.34209">
        <ele>696</ele>
        <time>2019-04-09T08:52:56Z</time>
      </trkpt>
      <trkpt lat="43.98034" lon="5.34215">
        <ele>696</ele>
        <time>2019-04-09T08:53:19Z</time>
      </trkpt>
      <trkpt lat="43.98053" lon="5.34215">
        <ele>697</ele>
        <time>2019-04-09T08:53:48Z</time>
      </trkpt>
      <trkpt lat="43.98064" lon="5.34195">
        <ele>699</ele>
        <time>2019-04-09T08:54:14Z</time>
      </trkpt>
      <trkpt lat="43.98077" lon="5.34177">
        <ele>702</ele>
        <time>2019-04-09T08:54:41Z</time>
      </trkpt>
      <trkpt lat="43.98092" lon="5.34161">
        <ele>710</ele>
        <time>2019-04-09T08:55:07Z</time>
      </trkpt>
      <trkpt lat="43.98105" lon="5.34144">
        <ele>714</ele>
        <time>2019-04-09T08:55:42Z</time>
      </trkpt>
      <trkpt lat="43.98117" lon="5.34124">
        <ele>717</ele>
        <time>2019-04-09T08:56:07Z</time>
      </trkpt>
      <trkpt lat="43.98132" lon="5.34109">
        <ele>719</ele>
        <time>2019-04-09T08:56:42Z</time>
      </trkpt>
      <trkpt lat="43.98152" lon="5.34111">
        <ele>721</ele>
        <time>2019-04-09T08:58:09Z</time>
      </trkpt>
      <trkpt lat="43.98172" lon="5.34111">
        <ele>729</ele>
        <time>2019-04-09T08:58:35Z</time>
      </trkpt>
      <trkpt lat="43.98191" lon="5.34112">
        <ele>729</ele>
        <time>2019-04-09T08:58:58Z</time>
      </trkpt>
      <trkpt lat="43.98208" lon="5.34122">
        <ele>730</ele>
        <time>2019-04-09T08:59:22Z</time>
      </trkpt>
      <trkpt lat="43.98224" lon="5.34136">
        <ele>730</ele>
        <time>2019-04-09T08:59:39Z</time>
      </trkpt>
      <trkpt lat="43.98239" lon="5.34148">
        <ele>730</ele>
        <time>2019-04-09T09:00:02Z</time>
      </trkpt>
      <trkpt lat="43.98258" lon="5.34154">
        <ele>734</ele>
        <time>2019-04-09T09:00:19Z</time>
      </trkpt>
      <trkpt lat="43.98276" lon="5.34164">
        <ele>736</ele>
        <time>2019-04-09T09:00:38Z</time>
      </trkpt>
      <trkpt lat="43.98291" lon="5.34179">
        <ele>732</ele>
        <time>2019-04-09T09:01:03Z</time>
      </trkpt>
      <trkpt lat="43.98308" lon="5.3419">
        <ele>733</ele>
        <time>2019-04-09T09:01:21Z</time>
      </trkpt>
      <trkpt lat="43.98327" lon="5.34193">
        <ele>733</ele>
        <time>2019-04-09T09:01:48Z</time>
      </trkpt>
      <trkpt lat="43.98345" lon="5.34192">
        <ele>737</ele>
        <time>2019-04-09T09:10:35Z</time>
      </trkpt>
      <trkpt lat="43.98364" lon="5.34192">
        <ele>737</ele>
        <time>2019-04-09T09:10:58Z</time>
      </trkpt>
      <trkpt lat="43.9838" lon="5.3418">
        <ele>737</ele>
        <time>2019-04-09T09:11:18Z</time>
      </trkpt>
      <trkpt lat="43.98397" lon="5.3419">
        <ele>738</ele>
        <time>2019-04-09T09:11:42Z</time>
      </trkpt>
      <trkpt lat="43.98415" lon="5.34199">
        <ele>737</ele>
        <time>2019-04-09T09:12:05Z</time>
      </trkpt>
      <trkpt lat="43.98433" lon="5.34205">
        <ele>738</ele>
        <time>2019-04-09T09:12:30Z</time>
      </trkpt>
      <trkpt lat="43.98452" lon="5.34202">
        <ele>738</ele>
        <time>2019-04-09T09:12:50Z</time>
      </trkpt>
      <trkpt lat="43.9847" lon="5.34205">
        <ele>737</ele>
        <time>2019-04-09T09:13:10Z</time>
      </trkpt>
      <trkpt lat="43.98486" lon="5.34221">
        <ele>737</ele>
        <time>2019-04-09T09:13:29Z</time>
      </trkpt>
      <trkpt lat="43.98505" lon="5.34226">
        <ele>735</ele>
        <time>2019-04-09T09:13:51Z</time>
      </trkpt>
      <trkpt lat="43.98525" lon="5.34226">
        <ele>735</ele>
        <time>2019-04-09T09:14:10Z</time>
      </trkpt>
      <trkpt lat="43.98542" lon="5.34235">
        <ele>735</ele>
        <time>2019-04-09T09:14:30Z</time>
      </trkpt>
      <trkpt lat="43.98559" lon="5.34248">
        <ele>735</ele>
        <time>2019-04-09T09:14:50Z</time>
      </trkpt>
      <trkpt lat="43.98578" lon="5.34252">
        <ele>735</ele>
        <time>2019-04-09T09:15:08Z</time>
      </trkpt>
      <trkpt lat="43.98581" lon="5.34277">
        <ele>734</ele>
        <time>2019-04-09T09:15:42Z</time>
      </trkpt>
      <trkpt lat="43.98579" lon="5.34299">
        <ele>734</ele>
        <time>2019-04-09T09:16:46Z</time>
      </trkpt>
      <trkpt lat="43.98596" lon="5.34285">
        <ele>735</ele>
        <time>2019-04-09T09:17:20Z</time>
      </trkpt>
      <trkpt lat="43.98592" lon="5.34306">
        <ele>736</ele>
        <time>2019-04-09T09:20:22Z</time>
      </trkpt>
      <trkpt lat="43.98595" lon="5.34331">
        <ele>737</ele>
        <time>2019-04-09T09:21:21Z</time>
      </trkpt>
      <trkpt lat="43.98604" lon="5.34353">
        <ele>742</ele>
        <time>2019-04-09T09:21:46Z</time>
      </trkpt>
      <trkpt lat="43.98611" lon="5.34372">
        <ele>743</ele>
        <time>2019-04-09T09:22:19Z</time>
      </trkpt>
      <trkpt lat="43.98602" lon="5.34394">
        <ele>744</ele>
        <time>2019-04-09T09:22:38Z</time>
      </trkpt>
      <trkpt lat="43.98592" lon="5.34416">
        <ele>744</ele>
        <time>2019-04-09T09:23:02Z</time>
      </trkpt>
      <trkpt lat="43.98604" lon="5.34397">
        <ele>744</ele>
        <time>2019-04-09T09:25:09Z</time>
      </trkpt>
      <trkpt lat="43.98611" lon="5.34372">
        <ele>743</ele>
        <time>2019-04-09T09:25:28Z</time>
      </trkpt>
      <trkpt lat="43.98601" lon="5.34349">
        <ele>741</ele>
        <time>2019-04-09T09:25:49Z</time>
      </trkpt>
      <trkpt lat="43.98596" lon="5.34325">
        <ele>737</ele>
        <time>2019-04-09T09:28:11Z</time>
      </trkpt>
      <trkpt lat="43.98599" lon="5.343">
        <ele>736</ele>
        <time>2019-04-09T09:28:32Z</time>
      </trkpt>
      <trkpt lat="43.9858" lon="5.34299">
        <ele>734</ele>
        <time>2019-04-09T09:29:21Z</time>
      </trkpt>
      <trkpt lat="43.98599" lon="5.34299">
        <ele>736</ele>
        <time>2019-04-09T09:29:48Z</time>
      </trkpt>
      <trkpt lat="43.98597" lon="5.34322">
        <ele>737</ele>
        <time>2019-04-09T09:32:05Z</time>
      </trkpt>
      <trkpt lat="43.98595" lon="5.34294">
        <ele>736</ele>
        <time>2019-04-09T10:51:23Z</time>
      </trkpt>
      <trkpt lat="43.98584" lon="5.34279">
        <ele>735</ele>
        <time>2019-04-09T10:51:53Z</time>
      </trkpt>
      <trkpt lat="43.98578" lon="5.34255">
        <ele>735</ele>
        <time>2019-04-09T10:54:07Z</time>
      </trkpt>
      <trkpt lat="43.9856" lon="5.34247">
        <ele>735</ele>
        <time>2019-04-09T10:54:29Z</time>
      </trkpt>
      <trkpt lat="43.98544" lon="5.34236">
        <ele>735</ele>
        <time>2019-04-09T10:54:49Z</time>
      </trkpt>
      <trkpt lat="43.98526" lon="5.34229">
        <ele>735</ele>
        <time>2019-04-09T10:55:12Z</time>
      </trkpt>
      <trkpt lat="43.98507" lon="5.34223">
        <ele>735</ele>
        <time>2019-04-09T10:55:34Z</time>
      </trkpt>
      <trkpt lat="43.98488" lon="5.34216">
        <ele>737</ele>
        <time>2019-04-09T10:55:54Z</time>
      </trkpt>
      <trkpt lat="43.98471" lon="5.34206">
        <ele>737</ele>
        <time>2019-04-09T10:56:13Z</time>
      </trkpt>
      <trkpt lat="43.98452" lon="5.34202">
        <ele>738</ele>
        <time>2019-04-09T10:56:32Z</time>
      </trkpt>
      <trkpt lat="43.98434" lon="5.34205">
        <ele>738</ele>
        <time>2019-04-09T10:56:48Z</time>
      </trkpt>
      <trkpt lat="43.9842" lon="5.34222">
        <ele>737</ele>
        <time>2019-04-09T10:57:20Z</time>
      </trkpt>
      <trkpt lat="43.98404" lon="5.34235">
        <ele>736</ele>
        <time>2019-04-09T10:57:56Z</time>
      </trkpt>
      <trkpt lat="43.98388" lon="5.34246">
        <ele>735</ele>
        <time>2019-04-09T10:58:19Z</time>
      </trkpt>
      <trkpt lat="43.98376" lon="5.34263">
        <ele>727</ele>
        <time>2019-04-09T10:58:50Z</time>
      </trkpt>
      <trkpt lat="43.98361" lon="5.34278">
        <ele>725</ele>
        <time>2019-04-09T11:00:18Z</time>
      </trkpt>
      <trkpt lat="43.98344" lon="5.34269">
        <ele>726</ele>
        <time>2019-04-09T11:01:01Z</time>
      </trkpt>
      <trkpt lat="43.9833" lon="5.34271">
        <ele>724</ele>
        <time>2019-04-09T11:01:28Z</time>
      </trkpt>
      <trkpt lat="43.98315" lon="5.34284">
        <ele>722</ele>
        <time>2019-04-09T11:01:57Z</time>
      </trkpt>
      <trkpt lat="43.98297" lon="5.34287">
        <ele>721</ele>
        <time>2019-04-09T11:02:46Z</time>
      </trkpt>
      <trkpt lat="43.98283" lon="5.34304">
        <ele>719</ele>
        <time>2019-04-09T11:03:45Z</time>
      </trkpt>
      <trkpt lat="43.98264" lon="5.34307">
        <ele>718</ele>
        <time>2019-04-09T11:04:39Z</time>
      </trkpt>
      <trkpt lat="43.98247" lon="5.34314">
        <ele>713</ele>
        <time>2019-04-09T11:05:10Z</time>
      </trkpt>
      <trkpt lat="43.98232" lon="5.34321">
        <ele>712</ele>
        <time>2019-04-09T11:05:45Z</time>
      </trkpt>
      <trkpt lat="43.98216" lon="5.34313">
        <ele>712</ele>
        <time>2019-04-09T11:06:33Z</time>
      </trkpt>
      <trkpt lat="43.98199" lon="5.34322">
        <ele>710</ele>
        <time>2019-04-09T11:07:01Z</time>
      </trkpt>
      <trkpt lat="43.98184" lon="5.34334">
        <ele>701</ele>
        <time>2019-04-09T11:07:39Z</time>
      </trkpt>
      <trkpt lat="43.98169" lon="5.34352">
        <ele>700</ele>
        <time>2019-04-09T11:08:23Z</time>
      </trkpt>
      <trkpt lat="43.98154" lon="5.34366">
        <ele>691</ele>
        <time>2019-04-09T11:09:04Z</time>
      </trkpt>
      <trkpt lat="43.98136" lon="5.34366">
        <ele>690</ele>
        <time>2019-04-09T11:09:32Z</time>
      </trkpt>
      <trkpt lat="43.9812" lon="5.34377">
        <ele>688</ele>
        <time>2019-04-09T11:10:08Z</time>
      </trkpt>
      <trkpt lat="43.98102" lon="5.34387">
        <ele>686</ele>
        <time>2019-04-09T11:11:45Z</time>
      </trkpt>
      <trkpt lat="43.98084" lon="5.34383">
        <ele>685</ele>
        <time>2019-04-09T11:12:36Z</time>
      </trkpt>
      <trkpt lat="43.98067" lon="5.34391">
        <ele>677</ele>
        <time>2019-04-09T11:13:12Z</time>
      </trkpt>
      <trkpt lat="43.9805" lon="5.34399">
        <ele>676</ele>
        <time>2019-04-09T11:13:41Z</time>
      </trkpt>
      <trkpt lat="43.98036" lon="5.34412">
        <ele>673</ele>
        <time>2019-04-09T11:14:06Z</time>
      </trkpt>
      <trkpt lat="43.98021" lon="5.34426">
        <ele>657</ele>
        <time>2019-04-09T11:14:51Z</time>
      </trkpt>
      <trkpt lat="43.98001" lon="5.34416">
        <ele>664</ele>
        <time>2019-04-09T11:16:58Z</time>
      </trkpt>
      <trkpt lat="43.97984" lon="5.34421">
        <ele>656</ele>
        <time>2019-04-09T11:17:52Z</time>
      </trkpt>
      <trkpt lat="43.97965" lon="5.34425">
        <ele>653</ele>
        <time>2019-04-09T11:18:36Z</time>
      </trkpt>
      <trkpt lat="43.97948" lon="5.34432">
        <ele>652</ele>
        <time>2019-04-09T11:20:26Z</time>
      </trkpt>
      <trkpt lat="43.97929" lon="5.34435">
        <ele>653</ele>
        <time>2019-04-09T11:21:08Z</time>
      </trkpt>
      <trkpt lat="43.97911" lon="5.34431">
        <ele>654</ele>
        <time>2019-04-09T11:21:48Z</time>
      </trkpt>
      <trkpt lat="43.97892" lon="5.34433">
        <ele>652</ele>
        <time>2019-04-09T11:22:30Z</time>
      </trkpt>
      <trkpt lat="43.97876" lon="5.34446">
        <ele>650</ele>
        <time>2019-04-09T11:23:57Z</time>
      </trkpt>
      <trkpt lat="43.97865" lon="5.34465">
        <ele>648</ele>
        <time>2019-04-09T11:24:31Z</time>
      </trkpt>
      <trkpt lat="43.97877" lon="5.34484">
        <ele>646</ele>
        <time>2019-04-09T11:25:19Z</time>
      </trkpt>
      <trkpt lat="43.97896" lon="5.34489">
        <ele>644</ele>
        <time>2019-04-09T11:26:20Z</time>
      </trkpt>
      <trkpt lat="43.97915" lon="5.34479">
        <ele>644</ele>
        <time>2019-04-09T11:27:12Z</time>
      </trkpt>
      <trkpt lat="43.97934" lon="5.34479">
        <ele>644</ele>
        <time>2019-04-09T11:27:26Z</time>
      </trkpt>
      <trkpt lat="43.97961" lon="5.34485">
        <ele>644</ele>
        <time>2019-04-09T11:28:17Z</time>
      </trkpt>
      <trkpt lat="43.97959" lon="5.34436">
        <ele>651</ele>
        <time>2019-04-09T11:28:32Z</time>
      </trkpt>
      <trkpt lat="43.97978" lon="5.34432">
        <ele>653</ele>
        <time>2019-04-09T11:29:37Z</time>
      </trkpt>
      <trkpt lat="43.97995" lon="5.34426">
        <ele>658</ele>
        <time>2019-04-09T11:29:55Z</time>
      </trkpt>
      <trkpt lat="43.98009" lon="5.34431">
        <ele>657</ele>
        <time>2019-04-09T11:31:37Z</time>
      </trkpt>
      <trkpt lat="43.98018" lon="5.34473">
        <ele>646</ele>
        <time>2019-04-09T11:32:12Z</time>
      </trkpt>
      <trkpt lat="43.98006" lon="5.34446">
        <ele>653</ele>
        <time>2019-04-09T11:33:23Z</time>
      </trkpt>
      <trkpt lat="43.98023" lon="5.34446">
        <ele>653</ele>
        <time>2019-04-09T11:33:53Z</time>
      </trkpt>
      <trkpt lat="43.98007" lon="5.34462">
        <ele>649</ele>
        <time>2019-04-09T11:35:01Z</time>
      </trkpt>
      <trkpt lat="43.98014" lon="5.3444">
        <ele>655</ele>
        <time>2019-04-09T11:36:39Z</time>
      </trkpt>
      <trkpt lat="43.97993" lon="5.34429">
        <ele>656</ele>
        <time>2019-04-09T11:38:09Z</time>
      </trkpt>
      <trkpt lat="43.97976" lon="5.3443">
        <ele>653</ele>
        <time>2019-04-09T11:38:42Z</time>
      </trkpt>
      <trkpt lat="43.97957" lon="5.34437">
        <ele>651</ele>
        <time>2019-04-09T11:39:14Z</time>
      </trkpt>
      <trkpt lat="43.97942" lon="5.34452">
        <ele>649</ele>
        <time>2019-04-09T11:39:37Z</time>
      </trkpt>
      <trkpt lat="43.9793" lon="5.34475">
        <ele>645</ele>
        <time>2019-04-09T11:40:12Z</time>
      </trkpt>
      <trkpt lat="43.97914" lon="5.34473">
        <ele>646</ele>
        <time>2019-04-09T11:40:28Z</time>
      </trkpt>
      <trkpt lat="43.97901" lon="5.34489">
        <ele>643</ele>
        <time>2019-04-09T11:40:48Z</time>
      </trkpt>
      <trkpt lat="43.97884" lon="5.34487">
        <ele>645</ele>
        <time>2019-04-09T11:41:47Z</time>
      </trkpt>
      <trkpt lat="43.97873" lon="5.34468">
        <ele>648</ele>
        <time>2019-04-09T11:42:45Z</time>
      </trkpt>
      <trkpt lat="43.97863" lon="5.3445">
        <ele>649</ele>
        <time>2019-04-09T11:47:48Z</time>
      </trkpt>
      <trkpt lat="43.97845" lon="5.34451">
        <ele>649</ele>
        <time>2019-04-09T11:54:04Z</time>
      </trkpt>
      <trkpt lat="43.97828" lon="5.3444">
        <ele>643</ele>
        <time>2019-04-09T11:54:37Z</time>
      </trkpt>
      <trkpt lat="43.97811" lon="5.34431">
        <ele>642</ele>
        <time>2019-04-09T11:55:10Z</time>
      </trkpt>
      <trkpt lat="43.97798" lon="5.34418">
        <ele>640</ele>
        <time>2019-04-09T11:56:01Z</time>
      </trkpt>
      <trkpt lat="43.97782" lon="5.34404">
        <ele>642</ele>
        <time>2019-04-09T11:56:36Z</time>
      </trkpt>
      <trkpt lat="43.97763" lon="5.34397">
        <ele>640</ele>
        <time>2019-04-09T11:58:00Z</time>
      </trkpt>
      <trkpt lat="43.97747" lon="5.34384">
        <ele>627</ele>
        <time>2019-04-09T11:59:08Z</time>
      </trkpt>
      <trkpt lat="43.9773" lon="5.34374">
        <ele>626</ele>
        <time>2019-04-09T11:59:59Z</time>
      </trkpt>
      <trkpt lat="43.97714" lon="5.3436">
        <ele>624</ele>
        <time>2019-04-09T12:01:04Z</time>
      </trkpt>
      <trkpt lat="43.97696" lon="5.34353">
        <ele>622</ele>
        <time>2019-04-09T12:03:12Z</time>
      </trkpt>
      <trkpt lat="43.97679" lon="5.34345">
        <ele>620</ele>
        <time>2019-04-09T12:07:21Z</time>
      </trkpt>
      <trkpt lat="43.97662" lon="5.34335">
        <ele>615</ele>
        <time>2019-04-09T12:08:05Z</time>
      </trkpt>
      <trkpt lat="43.9765" lon="5.34317">
        <ele>614</ele>
        <time>2019-04-09T12:09:51Z</time>
      </trkpt>
      <trkpt lat="43.97633" lon="5.34316">
        <ele>612</ele>
        <time>2019-04-09T12:10:28Z</time>
      </trkpt>
      <trkpt lat="43.97615" lon="5.34307">
        <ele>610</ele>
        <time>2019-04-09T12:10:53Z</time>
      </trkpt>
      <trkpt lat="43.97598" lon="5.34304">
        <ele>608</ele>
        <time>2019-04-09T12:11:50Z</time>
      </trkpt>
      <trkpt lat="43.97579" lon="5.34304">
        <ele>596</ele>
        <time>2019-04-09T12:12:25Z</time>
      </trkpt>
      <trkpt lat="43.97562" lon="5.34295">
        <ele>595</ele>
        <time>2019-04-09T12:13:34Z</time>
      </trkpt>
      <trkpt lat="43.97545" lon="5.34287">
        <ele>594</ele>
        <time>2019-04-09T12:14:07Z</time>
      </trkpt>
      <trkpt lat="43.97536" lon="5.34266">
        <ele>594</ele>
        <time>2019-04-09T12:14:41Z</time>
      </trkpt>
      <trkpt lat="43.97541" lon="5.34241">
        <ele>603</ele>
        <time>2019-04-09T12:15:39Z</time>
      </trkpt>
      <trkpt lat="43.97522" lon="5.34238">
        <ele>600</ele>
        <time>2019-04-09T12:16:06Z</time>
      </trkpt>
      <trkpt lat="43.97506" lon="5.34249">
        <ele>595</ele>
        <time>2019-04-09T12:16:37Z</time>
      </trkpt>
      <trkpt lat="43.97487" lon="5.34252">
        <ele>584</ele>
        <time>2019-04-09T12:17:12Z</time>
      </trkpt>
      <trkpt lat="43.9747" lon="5.34243">
        <ele>587</ele>
        <time>2019-04-09T12:17:36Z</time>
      </trkpt>
      <trkpt lat="43.97451" lon="5.34239">
        <ele>584</ele>
        <time>2019-04-09T12:17:57Z</time>
      </trkpt>
      <trkpt lat="43.97433" lon="5.34228">
        <ele>582</ele>
        <time>2019-04-09T12:18:19Z</time>
      </trkpt>
      <trkpt lat="43.97416" lon="5.34216">
        <ele>570</ele>
        <time>2019-04-09T12:18:53Z</time>
      </trkpt>
      <trkpt lat="43.97399" lon="5.34212">
        <ele>569</ele>
        <time>2019-04-09T12:19:44Z</time>
      </trkpt>
      <trkpt lat="43.97383" lon="5.342">
        <ele>568</ele>
        <time>2019-04-09T12:20:27Z</time>
      </trkpt>
      <trkpt lat="43.97375" lon="5.34219">
        <ele>565</ele>
        <time>2019-04-09T12:23:04Z</time>
      </trkpt>
      <trkpt lat="43.97355" lon="5.34226">
        <ele>560</ele>
        <time>2019-04-09T12:26:36Z</time>
      </trkpt>
      <trkpt lat="43.97344" lon="5.34244">
        <ele>551</ele>
        <time>2019-04-09T12:27:54Z</time>
      </trkpt>
      <trkpt lat="43.9733" lon="5.3423">
        <ele>540</ele>
        <time>2019-04-09T12:28:21Z</time>
      </trkpt>
      <trkpt lat="43.97328" lon="5.34254">
        <ele>535</ele>
        <time>2019-04-09T12:29:31Z</time>
      </trkpt>
      <trkpt lat="43.97327" lon="5.34228">
        <ele>540</ele>
        <time>2019-04-09T12:31:45Z</time>
      </trkpt>
      <trkpt lat="43.97308" lon="5.34225">
        <ele>538</ele>
        <time>2019-04-09T12:32:25Z</time>
      </trkpt>
      <trkpt lat="43.97321" lon="5.342">
        <ele>545</ele>
        <time>2019-04-09T12:33:06Z</time>
      </trkpt>
      <trkpt lat="43.97309" lon="5.34212">
        <ele>540</ele>
        <time>2019-04-09T12:34:01Z</time>
      </trkpt>
      <trkpt lat="43.9731" lon="5.34183">
        <ele>547</ele>
        <time>2019-04-09T12:35:03Z</time>
      </trkpt>
      <trkpt lat="43.97301" lon="5.34207">
        <ele>540</ele>
        <time>2019-04-09T12:35:52Z</time>
      </trkpt>
      <trkpt lat="43.9728" lon="5.34258">
        <ele>516</ele>
        <time>2019-04-09T12:36:10Z</time>
      </trkpt>
      <trkpt lat="43.97305" lon="5.342">
        <ele>542</ele>
        <time>2019-04-09T12:36:28Z</time>
      </trkpt>
      <trkpt lat="43.97285" lon="5.34247">
        <ele>531</ele>
        <time>2019-04-09T12:37:08Z</time>
      </trkpt>
      <trkpt lat="43.97307" lon="5.34208">
        <ele>541</ele>
        <time>2019-04-09T12:37:30Z</time>
      </trkpt>
      <trkpt lat="43.97322" lon="5.34194">
        <ele>546</ele>
        <time>2019-04-09T12:37:47Z</time>
      </trkpt>
      <trkpt lat="43.97346" lon="5.34181">
        <ele>566</ele>
        <time>2019-04-09T12:38:06Z</time>
      </trkpt>
      <trkpt lat="43.9733" lon="5.34199">
        <ele>546</ele>
        <time>2019-04-09T12:38:25Z</time>
      </trkpt>
      <trkpt lat="43.97311" lon="5.34192">
        <ele>545</ele>
        <time>2019-04-09T12:39:13Z</time>
      </trkpt>
      <trkpt lat="43.97291" lon="5.34189">
        <ele>540</ele>
        <time>2019-04-09T12:42:05Z</time>
      </trkpt>
      <trkpt lat="43.97275" lon="5.3421">
        <ele>534</ele>
        <time>2019-04-09T12:42:57Z</time>
      </trkpt>
      <trkpt lat="43.97264" lon="5.34222">
        <ele>529</ele>
        <time>2019-04-09T12:44:23Z</time>
      </trkpt>
      <trkpt lat="43.97256" lon="5.34246">
        <ele>516</ele>
        <time>2019-04-09T12:45:09Z</time>
      </trkpt>
      <trkpt lat="43.97242" lon="5.34263">
        <ele>498</ele>
        <time>2019-04-09T12:45:38Z</time>
      </trkpt>
      <trkpt lat="43.97236" lon="5.34285">
        <ele>491</ele>
        <time>2019-04-09T12:46:06Z</time>
      </trkpt>
      <trkpt lat="43.97231" lon="5.34309">
        <ele>488</ele>
        <time>2019-04-09T12:46:41Z</time>
      </trkpt>
      <trkpt lat="43.97226" lon="5.34333">
        <ele>484</ele>
        <time>2019-04-09T12:47:07Z</time>
      </trkpt>
      <trkpt lat="43.97227" lon="5.34359">
        <ele>482</ele>
        <time>2019-04-09T12:47:29Z</time>
      </trkpt>
      <trkpt lat="43.97226" lon="5.34386">
        <ele>480</ele>
        <time>2019-04-09T12:48:48Z</time>
      </trkpt>
      <trkpt lat="43.97235" lon="5.34409">
        <ele>479</ele>
        <time>2019-04-09T12:49:20Z</time>
      </trkpt>
      <trkpt lat="43.97246" lon="5.34427">
        <ele>480</ele>
        <time>2019-04-09T12:49:58Z</time>
      </trkpt>
      <trkpt lat="43.97259" lon="5.34444">
        <ele>484</ele>
        <time>2019-04-09T12:50:41Z</time>
      </trkpt>
      <trkpt lat="43.97275" lon="5.34447">
        <ele>485</ele>
        <time>2019-04-09T12:51:14Z</time>
      </trkpt>
      <trkpt lat="43.97294" lon="5.34454">
        <ele>487</ele>
        <time>2019-04-09T12:52:34Z</time>
      </trkpt>
      <trkpt lat="43.97311" lon="5.34464">
        <ele>487</ele>
        <time>2019-04-09T12:52:55Z</time>
      </trkpt>
      <trkpt lat="43.97303" lon="5.34485">
        <ele>486</ele>
        <time>2019-04-09T12:53:55Z</time>
      </trkpt>
      <trkpt lat="43.97285" lon="5.34486">
        <ele>485</ele>
        <time>2019-04-09T12:54:23Z</time>
      </trkpt>
      <trkpt lat="43.97268" lon="5.34497">
        <ele>484</ele>
        <time>2019-04-09T12:54:51Z</time>
      </trkpt>
      <trkpt lat="43.9725" lon="5.34498">
        <ele>483</ele>
        <time>2019-04-09T12:55:18Z</time>
      </trkpt>
      <trkpt lat="43.97231" lon="5.34502">
        <ele>496</ele>
        <time>2019-04-09T12:56:18Z</time>
      </trkpt>
      <trkpt lat="43.97213" lon="5.34496">
        <ele>488</ele>
        <time>2019-04-09T12:56:50Z</time>
      </trkpt>
      <trkpt lat="43.97216" lon="5.34519">
        <ele>503</ele>
        <time>2019-04-09T12:57:34Z</time>
      </trkpt>
      <trkpt lat="43.97199" lon="5.34511">
        <ele>504</ele>
        <time>2019-04-09T12:58:01Z</time>
      </trkpt>
      <trkpt lat="43.97183" lon="5.34503">
        <ele>504</ele>
        <time>2019-04-09T12:58:30Z</time>
      </trkpt>
      <trkpt lat="43.97165" lon="5.34509">
        <ele>509</ele>
        <time>2019-04-09T12:59:02Z</time>
      </trkpt>
      <trkpt lat="43.9715" lon="5.34495">
        <ele>504</ele>
        <time>2019-04-09T12:59:55Z</time>
      </trkpt>
      <trkpt lat="43.97135" lon="5.34478">
        <ele>505</ele>
        <time>2019-04-09T13:00:26Z</time>
      </trkpt>
      <trkpt lat="43.97119" lon="5.34465">
        <ele>506</ele>
        <time>2019-04-09T13:01:22Z</time>
      </trkpt>
      <trkpt lat="43.97105" lon="5.34474">
        <ele>509</ele>
        <time>2019-04-09T13:01:47Z</time>
      </trkpt>
      <trkpt lat="43.97088" lon="5.34488">
        <ele>516</ele>
        <time>2019-04-09T13:02:16Z</time>
      </trkpt>
      <trkpt lat="43.9708" lon="5.3451">
        <ele>525</ele>
        <time>2019-04-09T13:02:43Z</time>
      </trkpt>
      <trkpt lat="43.97087" lon="5.34528">
        <ele>523</ele>
        <time>2019-04-09T13:05:01Z</time>
      </trkpt>
      <trkpt lat="43.97082" lon="5.34529">
        <ele>527</ele>
        <time>2019-04-09T13:06:08Z</time>
      </trkpt>
      <trkpt lat="43.97082" lon="5.34529">
        <ele>527</ele>
        <time>2019-04-09T13:06:08Z</time>
      </trkpt>
      <trkpt lat="43.97089" lon="5.34535">
        <ele>523</ele>
        <time>2019-04-09T13:06:29Z</time>
      </trkpt>
      <trkpt lat="43.97093" lon="5.34557">
        <ele>526</ele>
        <time>2019-04-09T13:08:16Z</time>
      </trkpt>
      <trkpt lat="43.97107" lon="5.34577">
        <ele>527</ele>
        <time>2019-04-09T13:08:37Z</time>
      </trkpt>
      <trkpt lat="43.9709" lon="5.34573">
        <ele>530</ele>
        <time>2019-04-09T13:09:02Z</time>
      </trkpt>
      <trkpt lat="43.97072" lon="5.34561">
        <ele>530</ele>
        <time>2019-04-09T13:09:23Z</time>
      </trkpt>
      <trkpt lat="43.97057" lon="5.34547">
        <ele>528</ele>
        <time>2019-04-09T13:09:42Z</time>
      </trkpt>
      <trkpt lat="43.97063" lon="5.34571">
        <ele>530</ele>
        <time>2019-04-09T13:10:08Z</time>
      </trkpt>
      <trkpt lat="43.97075" lon="5.34592">
        <ele>534</ele>
        <time>2019-04-09T13:10:27Z</time>
      </trkpt>
      <trkpt lat="43.97084" lon="5.34614">
        <ele>536</ele>
        <time>2019-04-09T13:10:49Z</time>
      </trkpt>
      <trkpt lat="43.97094" lon="5.34634">
        <ele>537</ele>
        <time>2019-04-09T13:11:09Z</time>
      </trkpt>
      <trkpt lat="43.97107" lon="5.34654">
        <ele>538</ele>
        <time>2019-04-09T13:11:27Z</time>
      </trkpt>
      <trkpt lat="43.9712" lon="5.34673">
        <ele>542</ele>
        <time>2019-04-09T13:11:50Z</time>
      </trkpt>
      <trkpt lat="43.97131" lon="5.34694">
        <ele>542</ele>
        <time>2019-04-09T13:12:08Z</time>
      </trkpt>
      <trkpt lat="43.97137" lon="5.3472">
        <ele>543</ele>
        <time>2019-04-09T13:12:26Z</time>
      </trkpt>
      <trkpt lat="43.97144" lon="5.34745">
        <ele>545</ele>
        <time>2019-04-09T13:12:46Z</time>
      </trkpt>
      <trkpt lat="43.97156" lon="5.34766">
        <ele>547</ele>
        <time>2019-04-09T13:13:07Z</time>
      </trkpt>
      <trkpt lat="43.97167" lon="5.34787">
        <ele>548</ele>
        <time>2019-04-09T13:13:24Z</time>
      </trkpt>
      <trkpt lat="43.97178" lon="5.3481">
        <ele>549</ele>
        <time>2019-04-09T13:13:42Z</time>
      </trkpt>
      <trkpt lat="43.97188" lon="5.34833">
        <ele>549</ele>
        <time>2019-04-09T13:14:01Z</time>
      </trkpt>
      <trkpt lat="43.97198" lon="5.34857">
        <ele>552</ele>
        <time>2019-04-09T13:14:21Z</time>
      </trkpt>
      <trkpt lat="43.97208" lon="5.34881">
        <ele>553</ele>
        <time>2019-04-09T13:14:39Z</time>
      </trkpt>
      <trkpt lat="43.97215" lon="5.34903">
        <ele>554</ele>
        <time>2019-04-09T13:14:56Z</time>
      </trkpt>
      <trkpt lat="43.97222" lon="5.34927">
        <ele>558</ele>
        <time>2019-04-09T13:15:14Z</time>
      </trkpt>
      <trkpt lat="43.97234" lon="5.34948">
        <ele>559</ele>
        <time>2019-04-09T13:15:35Z</time>
      </trkpt>
      <trkpt lat="43.97234" lon="5.34972">
        <ele>560</ele>
        <time>2019-04-09T13:16:26Z</time>
      </trkpt>
      <trkpt lat="43.97226" lon="5.34997">
        <ele>561</ele>
        <time>2019-04-09T13:16:45Z</time>
      </trkpt>
      <trkpt lat="43.97218" lon="5.35017">
        <ele>563</ele>
        <time>2019-04-09T13:19:37Z</time>
      </trkpt>
      <trkpt lat="43.97225" lon="5.35041">
        <ele>564</ele>
        <time>2019-04-09T13:19:55Z</time>
      </trkpt>
      <trkpt lat="43.97229" lon="5.35065">
        <ele>565</ele>
        <time>2019-04-09T13:20:13Z</time>
      </trkpt>
      <trkpt lat="43.97217" lon="5.35082">
        <ele>564</ele>
        <time>2019-04-09T13:20:51Z</time>
      </trkpt>
      <trkpt lat="43.97199" lon="5.35073">
        <ele>563</ele>
        <time>2019-04-09T13:21:13Z</time>
      </trkpt>
      <trkpt lat="43.97184" lon="5.35088">
        <ele>562</ele>
        <time>2019-04-09T13:21:38Z</time>
      </trkpt>
      <trkpt lat="43.97169" lon="5.351">
        <ele>562</ele>
        <time>2019-04-09T13:22:04Z</time>
      </trkpt>
      <trkpt lat="43.97152" lon="5.35111">
        <ele>553</ele>
        <time>2019-04-09T13:22:24Z</time>
      </trkpt>
      <trkpt lat="43.9714" lon="5.3513">
        <ele>552</ele>
        <time>2019-04-09T13:22:56Z</time>
      </trkpt>
      <trkpt lat="43.97131" lon="5.35152">
        <ele>552</ele>
        <time>2019-04-09T13:23:26Z</time>
      </trkpt>
      <trkpt lat="43.97129" lon="5.35177">
        <ele>552</ele>
        <time>2019-04-09T13:24:06Z</time>
      </trkpt>
      <trkpt lat="43.97121" lon="5.352">
        <ele>551</ele>
        <time>2019-04-09T13:25:29Z</time>
      </trkpt>
      <trkpt lat="43.97111" lon="5.35222">
        <ele>550</ele>
        <time>2019-04-09T13:26:00Z</time>
      </trkpt>
      <trkpt lat="43.97099" lon="5.35243">
        <ele>548</ele>
        <time>2019-04-09T13:26:18Z</time>
      </trkpt>
      <trkpt lat="43.97101" lon="5.35268">
        <ele>550</ele>
        <time>2019-04-09T13:26:34Z</time>
      </trkpt>
      <trkpt lat="43.97096" lon="5.35292">
        <ele>550</ele>
        <time>2019-04-09T13:26:54Z</time>
      </trkpt>
      <trkpt lat="43.97078" lon="5.35288">
        <ele>552</ele>
        <time>2019-04-09T13:27:12Z</time>
      </trkpt>
      <trkpt lat="43.97063" lon="5.35272">
        <ele>551</ele>
        <time>2019-04-09T13:27:28Z</time>
      </trkpt>
      <trkpt lat="43.97055" lon="5.35249">
        <ele>549</ele>
        <time>2019-04-09T13:27:45Z</time>
      </trkpt>
      <trkpt lat="43.9705" lon="5.35225">
        <ele>550</ele>
        <time>2019-04-09T13:28:02Z</time>
      </trkpt>
      <trkpt lat="43.97049" lon="5.35199">
        <ele>549</ele>
        <time>2019-04-09T13:28:18Z</time>
      </trkpt>
      <trkpt lat="43.9705" lon="5.35171">
        <ele>549</ele>
        <time>2019-04-09T13:28:36Z</time>
      </trkpt>
      <trkpt lat="43.97048" lon="5.35144">
        <ele>546</ele>
        <time>2019-04-09T13:28:56Z</time>
      </trkpt>
      <trkpt lat="43.97035" lon="5.35124">
        <ele>547</ele>
        <time>2019-04-09T13:29:17Z</time>
      </trkpt>
      <trkpt lat="43.97024" lon="5.35103">
        <ele>547</ele>
        <time>2019-04-09T13:29:33Z</time>
      </trkpt>
      <trkpt lat="43.97015" lon="5.35078">
        <ele>546</ele>
        <time>2019-04-09T13:29:50Z</time>
      </trkpt>
      <trkpt lat="43.97013" lon="5.35052">
        <ele>544</ele>
        <time>2019-04-09T13:30:12Z</time>
      </trkpt>
      <trkpt lat="43.97014" lon="5.35026">
        <ele>544</ele>
        <time>2019-04-09T13:30:34Z</time>
      </trkpt>
      <trkpt lat="43.97011" lon="5.35001">
        <ele>544</ele>
        <time>2019-04-09T13:30:51Z</time>
      </trkpt>
      <trkpt lat="43.97007" lon="5.34975">
        <ele>541</ele>
        <time>2019-04-09T13:31:08Z</time>
      </trkpt>
      <trkpt lat="43.97" lon="5.3495">
        <ele>545</ele>
        <time>2019-04-09T13:31:27Z</time>
      </trkpt>
      <trkpt lat="43.9699" lon="5.34927">
        <ele>543</ele>
        <time>2019-04-09T13:31:44Z</time>
      </trkpt>
      <trkpt lat="43.96979" lon="5.34906">
        <ele>540</ele>
        <time>2019-04-09T13:32:00Z</time>
      </trkpt>
      <trkpt lat="43.96967" lon="5.34883">
        <ele>540</ele>
        <time>2019-04-09T13:32:18Z</time>
      </trkpt>
      <trkpt lat="43.9696" lon="5.34858">
        <ele>539</ele>
        <time>2019-04-09T13:32:35Z</time>
      </trkpt>
      <trkpt lat="43.96954" lon="5.34834">
        <ele>539</ele>
        <time>2019-04-09T13:32:51Z</time>
      </trkpt>
      <trkpt lat="43.96946" lon="5.3481">
        <ele>534</ele>
        <time>2019-04-09T13:33:08Z</time>
      </trkpt>
      <trkpt lat="43.96935" lon="5.34788">
        <ele>534</ele>
        <time>2019-04-09T13:33:27Z</time>
      </trkpt>
      <trkpt lat="43.96922" lon="5.34766">
        <ele>534</ele>
        <time>2019-04-09T13:33:43Z</time>
      </trkpt>
      <trkpt lat="43.96916" lon="5.34741">
        <ele>535</ele>
        <time>2019-04-09T13:33:58Z</time>
      </trkpt>
      <trkpt lat="43.96911" lon="5.34715">
        <ele>533</ele>
        <time>2019-04-09T13:34:15Z</time>
      </trkpt>
      <trkpt lat="43.96899" lon="5.34694">
        <ele>532</ele>
        <time>2019-04-09T13:34:36Z</time>
      </trkpt>
      <trkpt lat="43.96887" lon="5.34671">
        <ele>531</ele>
        <time>2019-04-09T13:34:55Z</time>
      </trkpt>
      <trkpt lat="43.96891" lon="5.34646">
        <ele>525</ele>
        <time>2019-04-09T13:35:15Z</time>
      </trkpt>
      <trkpt lat="43.96894" lon="5.34672">
        <ele>531</ele>
        <time>2019-04-09T13:35:44Z</time>
      </trkpt>
      <trkpt lat="43.96882" lon="5.34658">
        <ele>526</ele>
        <time>2019-04-09T13:39:41Z</time>
      </trkpt>
      <trkpt lat="43.96872" lon="5.34637">
        <ele>526</ele>
        <time>2019-04-09T13:39:58Z</time>
      </trkpt>
      <trkpt lat="43.96859" lon="5.34617">
        <ele>525</ele>
        <time>2019-04-09T13:40:12Z</time>
      </trkpt>
      <trkpt lat="43.96845" lon="5.34599">
        <ele>526</ele>
        <time>2019-04-09T13:40:31Z</time>
      </trkpt>
      <trkpt lat="43.96833" lon="5.34579">
        <ele>527</ele>
        <time>2019-04-09T13:40:47Z</time>
      </trkpt>
      <trkpt lat="43.96825" lon="5.34556">
        <ele>528</ele>
        <time>2019-04-09T13:41:02Z</time>
      </trkpt>
      <trkpt lat="43.96821" lon="5.3453">
        <ele>526</ele>
        <time>2019-04-09T13:41:19Z</time>
      </trkpt>
      <trkpt lat="43.96818" lon="5.34503">
        <ele>523</ele>
        <time>2019-04-09T13:41:36Z</time>
      </trkpt>
      <trkpt lat="43.96815" lon="5.34477">
        <ele>519</ele>
        <time>2019-04-09T13:41:54Z</time>
      </trkpt>
      <trkpt lat="43.96804" lon="5.34456">
        <ele>519</ele>
        <time>2019-04-09T13:42:10Z</time>
      </trkpt>
      <trkpt lat="43.96791" lon="5.34438">
        <ele>519</ele>
        <time>2019-04-09T13:42:28Z</time>
      </trkpt>
      <trkpt lat="43.96777" lon="5.34422">
        <ele>522</ele>
        <time>2019-04-09T13:42:45Z</time>
      </trkpt>
      <trkpt lat="43.96761" lon="5.34407">
        <ele>519</ele>
        <time>2019-04-09T13:43:04Z</time>
      </trkpt>
      <trkpt lat="43.96747" lon="5.34389">
        <ele>528</ele>
        <time>2019-04-09T13:43:21Z</time>
      </trkpt>
      <trkpt lat="43.96734" lon="5.3437">
        <ele>527</ele>
        <time>2019-04-09T13:43:38Z</time>
      </trkpt>
      <trkpt lat="43.96719" lon="5.34354">
        <ele>527</ele>
        <time>2019-04-09T13:43:55Z</time>
      </trkpt>
      <trkpt lat="43.96703" lon="5.34337">
        <ele>529</ele>
        <time>2019-04-09T13:44:11Z</time>
      </trkpt>
      <trkpt lat="43.96691" lon="5.34315">
        <ele>521</ele>
        <time>2019-04-09T13:44:28Z</time>
      </trkpt>
      <trkpt lat="43.96678" lon="5.34296">
        <ele>520</ele>
        <time>2019-04-09T13:44:44Z</time>
      </trkpt>
      <trkpt lat="43.96663" lon="5.34279">
        <ele>534</ele>
        <time>2019-04-09T13:45:00Z</time>
      </trkpt>
      <trkpt lat="43.96651" lon="5.34257">
        <ele>531</ele>
        <time>2019-04-09T13:45:17Z</time>
      </trkpt>
      <trkpt lat="43.96639" lon="5.34236">
        <ele>525</ele>
        <time>2019-04-09T13:45:34Z</time>
      </trkpt>
      <trkpt lat="43.96626" lon="5.34215">
        <ele>525</ele>
        <time>2019-04-09T13:45:50Z</time>
      </trkpt>
      <trkpt lat="43.96613" lon="5.34197">
        <ele>524</ele>
        <time>2019-04-09T13:46:08Z</time>
      </trkpt>
      <trkpt lat="43.96597" lon="5.34182">
        <ele>524</ele>
        <time>2019-04-09T13:46:24Z</time>
      </trkpt>
      <trkpt lat="43.96585" lon="5.34161">
        <ele>521</ele>
        <time>2019-04-09T13:46:38Z</time>
      </trkpt>
      <trkpt lat="43.96572" lon="5.3414">
        <ele>524</ele>
        <time>2019-04-09T13:46:59Z</time>
      </trkpt>
      <trkpt lat="43.96563" lon="5.34118">
        <ele>522</ele>
        <time>2019-04-09T13:47:15Z</time>
      </trkpt>
      <trkpt lat="43.96554" lon="5.34097">
        <ele>520</ele>
        <time>2019-04-09T13:47:31Z</time>
      </trkpt>
      <trkpt lat="43.96543" lon="5.34075">
        <ele>511</ele>
        <time>2019-04-09T13:47:47Z</time>
      </trkpt>
      <trkpt lat="43.96534" lon="5.34051">
        <ele>510</ele>
        <time>2019-04-09T13:48:05Z</time>
      </trkpt>
      <trkpt lat="43.96523" lon="5.34032">
        <ele>509</ele>
        <time>2019-04-09T13:49:07Z</time>
      </trkpt>
      <trkpt lat="43.96511" lon="5.34012">
        <ele>508</ele>
        <time>2019-04-09T13:49:23Z</time>
      </trkpt>
      <trkpt lat="43.96503" lon="5.33989">
        <ele>503</ele>
        <time>2019-04-09T13:49:41Z</time>
      </trkpt>
      <trkpt lat="43.9649" lon="5.33969">
        <ele>507</ele>
        <time>2019-04-09T13:50:01Z</time>
      </trkpt>
      <trkpt lat="43.9648" lon="5.33946">
        <ele>504</ele>
        <time>2019-04-09T13:51:42Z</time>
      </trkpt>
      <trkpt lat="43.96466" lon="5.33929">
        <ele>504</ele>
        <time>2019-04-09T13:51:59Z</time>
      </trkpt>
      <trkpt lat="43.96455" lon="5.33907">
        <ele>494</ele>
        <time>2019-04-09T13:52:16Z</time>
      </trkpt>
      <trkpt lat="43.9644" lon="5.3389">
        <ele>494</ele>
        <time>2019-04-09T13:52:33Z</time>
      </trkpt>
      <trkpt lat="43.96427" lon="5.3387">
        <ele>491</ele>
        <time>2019-04-09T13:52:51Z</time>
      </trkpt>
      <trkpt lat="43.9644" lon="5.33862">
        <ele>490</ele>
        <time>2019-04-09T13:53:06Z</time>
      </trkpt>
      <trkpt lat="43.96457" lon="5.33874">
        <ele>491</ele>
        <time>2019-04-09T13:53:22Z</time>
      </trkpt>
      <trkpt lat="43.96472" lon="5.33875">
        <ele>490</ele>
        <time>2019-04-09T13:53:43Z</time>
      </trkpt>
      <trkpt lat="43.9649" lon="5.33867">
        <ele>488</ele>
        <time>2019-04-09T13:54:02Z</time>
      </trkpt>
      <trkpt lat="43.96505" lon="5.33855">
        <ele>480</ele>
        <time>2019-04-09T13:54:25Z</time>
      </trkpt>
      <trkpt lat="43.96508" lon="5.33832">
        <ele>474</ele>
        <time>2019-04-09T13:54:46Z</time>
      </trkpt>
      <trkpt lat="43.96494" lon="5.33816">
        <ele>476</ele>
        <time>2019-04-09T13:55:09Z</time>
      </trkpt>
      <trkpt lat="43.96483" lon="5.33795">
        <ele>473</ele>
        <time>2019-04-09T13:55:28Z</time>
      </trkpt>
      <trkpt lat="43.96474" lon="5.33777">
        <ele>471</ele>
        <time>2019-04-09T13:55:50Z</time>
      </trkpt>
      <trkpt lat="43.96459" lon="5.33761">
        <ele>470</ele>
        <time>2019-04-09T13:56:06Z</time>
      </trkpt>
      <trkpt lat="43.96444" lon="5.33746">
        <ele>459</ele>
        <time>2019-04-09T13:56:26Z</time>
      </trkpt>
      <trkpt lat="43.9643" lon="5.33728">
        <ele>459</ele>
        <time>2019-04-09T13:56:45Z</time>
      </trkpt>
      <trkpt lat="43.96417" lon="5.33709">
        <ele>456</ele>
        <time>2019-04-09T13:57:02Z</time>
      </trkpt>
      <trkpt lat="43.96409" lon="5.33685">
        <ele>455</ele>
        <time>2019-04-09T13:57:23Z</time>
      </trkpt>
      <trkpt lat="43.96396" lon="5.33665">
        <ele>443</ele>
        <time>2019-04-09T13:57:42Z</time>
      </trkpt>
      <trkpt lat="43.96379" lon="5.33663">
        <ele>440</ele>
        <time>2019-04-09T13:57:58Z</time>
      </trkpt>
      <trkpt lat="43.96359" lon="5.33671">
        <ele>453</ele>
        <time>2019-04-09T13:58:18Z</time>
      </trkpt>
      <trkpt lat="43.9634" lon="5.33676">
        <ele>450</ele>
        <time>2019-04-09T13:58:36Z</time>
      </trkpt>
      <trkpt lat="43.96322" lon="5.33684">
        <ele>450</ele>
        <time>2019-04-09T13:58:52Z</time>
      </trkpt>
      <trkpt lat="43.96304" lon="5.33689">
        <ele>451</ele>
        <time>2019-04-09T13:59:09Z</time>
      </trkpt>
      <trkpt lat="43.96285" lon="5.33692">
        <ele>450</ele>
        <time>2019-04-09T13:59:30Z</time>
      </trkpt>
      <trkpt lat="43.96282" lon="5.33689">
        <ele>449</ele>
        <time>2019-04-09T13:59:44Z</time>
      </trkpt>
      <trkpt lat="43.96282" lon="5.33689">
        <ele>449</ele>
        <time>2019-04-09T13:59:44Z</time>
      </trkpt>
    </trkseg>
  </trk>
</gpx>